createdAt,value
2018-05-23T00:00:21.791Z,1011.5
2018-05-23T00:01:23.783Z,1011.5
2018-05-23T00:02:25.776Z,1011.5
2018-05-23T00:03:27.768Z,1011.5
2018-05-23T00:04:29.771Z,1011.5
2018-05-23T00:05:31.765Z,1011.5
2018-05-23T00:06:33.768Z,1011.5
2018-05-23T00:07:35.768Z,1011.5
2018-05-23T00:08:38.430Z,1011.5
2018-05-23T00:09:40.427Z,1011.5
2018-05-23T00:10:42.418Z,1011.5
2018-05-23T00:11:44.418Z,1011.5
2018-05-23T00:12:46.422Z,1011.5
2018-05-23T00:13:48.417Z,1011.5
2018-05-23T00:14:50.412Z,1011.5
2018-05-23T00:15:52.404Z,1011.5
2018-05-23T00:16:54.402Z,1011.5
2018-05-23T00:17:56.404Z,1011.5
2018-05-23T00:18:58.403Z,1011.5
2018-05-23T00:20:00.394Z,1011.5
2018-05-23T00:21:02.390Z,1011.5
2018-05-23T00:22:04.781Z,1011.6
2018-05-23T00:23:06.774Z,1011.5
2018-05-23T00:24:08.770Z,1011.6
2018-05-23T00:25:10.770Z,1011.6
2018-05-23T00:26:13.047Z,1011.6
2018-05-23T00:27:15.038Z,1011.6
2018-05-23T00:28:17.412Z,1011.6
2018-05-23T00:29:19.423Z,1011.6
2018-05-23T00:30:21.419Z,1011.6
2018-05-23T00:31:23.412Z,1011.6
2018-05-23T00:32:25.407Z,1011.6
2018-05-23T00:33:27.787Z,1011.6
2018-05-23T00:34:29.789Z,1011.6
2018-05-23T00:35:31.781Z,1011.6
2018-05-23T00:36:33.784Z,1011.6
2018-05-23T00:37:35.787Z,1011.6
2018-05-23T00:38:38.127Z,1011.6
2018-05-23T00:39:40.120Z,1011.6
2018-05-23T00:40:42.137Z,1011.7
2018-05-23T00:41:44.134Z,1011.6
2018-05-23T00:42:46.127Z,1011.7
2018-05-23T00:43:48.123Z,1011.7
2018-05-23T00:44:50.502Z,1011.7
2018-05-23T00:45:52.491Z,1011.7
2018-05-23T00:46:54.486Z,1011.8
2018-05-23T00:47:56.778Z,1011.7
2018-05-23T00:48:58.774Z,1011.7
2018-05-23T00:50:00.766Z,1011.7
2018-05-23T00:51:02.767Z,1011.7
2018-05-23T00:52:04.758Z,1011.7
2018-05-23T00:53:06.773Z,1011.7
2018-05-23T00:54:08.766Z,1011.7
2018-05-23T00:55:10.751Z,1011.7
2018-05-23T00:56:13.039Z,1011.7
2018-05-23T00:57:15.041Z,1011.7
2018-05-23T00:58:17.043Z,1011.8
2018-05-23T00:59:19.317Z,1011.7
2018-05-23T01:00:21.309Z,1011.7
2018-05-23T01:01:23.321Z,1011.7
2018-05-23T01:02:25.300Z,1011.7
2018-05-23T01:03:27.309Z,1011.7
2018-05-23T01:04:29.306Z,1011.7
2018-05-23T01:05:31.298Z,1011.8
2018-05-23T01:06:33.293Z,1011.7
2018-05-23T01:07:35.284Z,1011.8
2018-05-23T01:08:37.288Z,1011.8
2018-05-23T01:09:39.286Z,1011.8
2018-05-23T01:10:41.272Z,1011.8
2018-05-23T01:11:43.280Z,1011.8
2018-05-23T01:12:45.958Z,1011.8
2018-05-23T01:13:47.940Z,1011.7
2018-05-23T01:14:50.326Z,1011.8
2018-05-23T01:15:52.709Z,1011.7
2018-05-23T01:16:54.701Z,1011.8
2018-05-23T01:17:56.696Z,1011.8
2018-05-23T01:18:58.693Z,1011.8
2018-05-23T01:20:00.991Z,1011.8
2018-05-23T01:21:03.250Z,1011.8
2018-05-23T01:22:05.246Z,1011.8
2018-05-23T01:23:07.244Z,1011.8
2018-05-23T01:24:09.240Z,1011.8
2018-05-23T01:25:11.235Z,1011.9
2018-05-23T01:26:13.236Z,1011.8
2018-05-23T01:27:15.515Z,1011.9
2018-05-23T01:28:17.520Z,1011.8
2018-05-23T01:29:19.514Z,1011.9
2018-05-23T01:30:21.506Z,1011.9
2018-05-23T01:31:23.502Z,1011.8
2018-05-23T01:32:25.498Z,1011.9
2018-05-23T01:33:27.505Z,1011.9
2018-05-23T01:34:29.494Z,1011.9
2018-05-23T01:35:31.876Z,1011.9
2018-05-23T01:36:34.164Z,1011.9
2018-05-23T01:37:36.166Z,1011.9
2018-05-23T01:38:38.476Z,1011.9
2018-05-23T01:39:40.452Z,1011.9
2018-05-23T01:40:42.452Z,1012
2018-05-23T01:41:44.451Z,1011.9
2018-05-23T01:42:46.436Z,1011.9
2018-05-23T01:43:48.722Z,1011.9
2018-05-23T01:44:51.386Z,1012
2018-05-23T01:45:54.055Z,1012
2018-05-23T01:46:56.052Z,1012
2018-05-23T01:47:58.043Z,1012
2018-05-23T01:49:00.424Z,1012
2018-05-23T01:50:03.009Z,1012
2018-05-23T01:51:05.305Z,1012
2018-05-23T01:52:07.314Z,1012.1
2018-05-23T01:53:09.304Z,1012
2018-05-23T01:54:11.301Z,1012
2018-05-23T01:55:13.303Z,1012.1
2018-05-23T01:56:15.610Z,1012.1
2018-05-23T01:57:17.600Z,1012
2018-05-23T01:58:19.599Z,1012
2018-05-23T01:59:21.596Z,1012.1
2018-05-23T02:00:23.599Z,1012.1
2018-05-23T02:01:25.584Z,1012.2
2018-05-23T02:02:27.583Z,1012.1
2018-05-23T02:03:29.577Z,1012.1
2018-05-23T02:04:31.881Z,1012.2
2018-05-23T02:05:34.646Z,1012.2
2018-05-23T02:06:36.640Z,1012.2
2018-05-23T02:07:38.636Z,1012.2
2018-05-23T02:08:41.029Z,1012.2
2018-05-23T02:09:43.024Z,1012.2
2018-05-23T02:10:45.691Z,1012.2
2018-05-23T02:11:47.689Z,1012.2
2018-05-23T02:12:50.355Z,1012.2
2018-05-23T02:13:52.358Z,1012.2
2018-05-23T02:14:54.644Z,1012.2
2018-05-23T02:15:57.311Z,1012.2
2018-05-23T02:16:59.313Z,1012.2
2018-05-23T02:18:01.292Z,1012.2
2018-05-23T02:19:03.288Z,1012.2
2018-05-23T02:20:05.576Z,1012.3
2018-05-23T02:21:07.850Z,1012.3
2018-05-23T02:22:10.125Z,1012.2
2018-05-23T02:23:12.174Z,1012.2
2018-05-23T02:24:14.118Z,1012.2
2018-05-23T02:25:16.793Z,1012.2
2018-05-23T02:26:19.345Z,1012.2
2018-05-23T02:27:21.355Z,1012.2
2018-05-23T02:28:23.345Z,1012.2
2018-05-23T02:29:25.368Z,1012.2
2018-05-23T02:30:27.331Z,1012.2
2018-05-23T02:31:29.325Z,1012.2
2018-05-23T02:32:31.334Z,1012.3
2018-05-23T02:33:33.611Z,1012.3
2018-05-23T02:34:35.603Z,1012.3
2018-05-23T02:35:37.601Z,1012.3
2018-05-23T02:36:39.973Z,1012.3
2018-05-23T02:37:42.252Z,1012.3
2018-05-23T02:38:44.552Z,1012.3
2018-05-23T02:39:46.936Z,1012.3
2018-05-23T02:40:49.493Z,1012.3
2018-05-23T02:41:51.796Z,1012.3
2018-05-23T02:42:53.788Z,1012.3
2018-05-23T02:43:55.791Z,1012.2
2018-05-23T02:44:57.787Z,1012.2
2018-05-23T02:46:00.074Z,1012.2
2018-05-23T02:47:02.158Z,1012.2
2018-05-23T02:48:04.359Z,1012.3
2018-05-23T02:49:07.215Z,1012.3
2018-05-23T02:50:09.204Z,1012.3
2018-05-23T02:51:11.199Z,1012.3
2018-05-23T02:52:13.857Z,1012.3
2018-05-23T02:53:16.154Z,1012.4
2018-05-23T02:54:18.525Z,1012.3
2018-05-23T02:55:20.521Z,1012.3
2018-05-23T02:56:22.806Z,1012.3
2018-05-23T02:57:25.360Z,1012.4
2018-05-23T02:58:27.912Z,1012.4
2018-05-23T02:59:30.292Z,1012.4
2018-05-23T03:00:32.574Z,1012.4
2018-05-23T03:01:34.567Z,1012.5
2018-05-23T03:02:36.558Z,1012.5
2018-05-23T03:03:38.862Z,1012.5
2018-05-23T03:04:40.863Z,1012.5
2018-05-23T03:05:42.841Z,1012.5
2018-05-23T03:06:45.139Z,1012.5
2018-05-23T03:07:47.528Z,1012.5
2018-05-23T03:08:49.800Z,1012.5
2018-05-23T03:09:51.802Z,1012.5
2018-05-23T03:10:54.074Z,1012.5
2018-05-23T03:11:56.063Z,1012.5
2018-05-23T03:12:58.070Z,1012.6
2018-05-23T03:14:00.337Z,1012.6
2018-05-23T03:15:02.335Z,1012.6
2018-05-23T03:16:04.332Z,1012.6
2018-05-23T03:17:06.631Z,1012.6
2018-05-23T03:18:08.630Z,1012.6
2018-05-23T03:19:10.929Z,1012.7
2018-05-23T03:20:12.927Z,1012.7
2018-05-23T03:21:15.210Z,1012.8
2018-05-23T03:22:17.195Z,1012.7
2018-05-23T03:23:19.184Z,1012.7
2018-05-23T03:24:21.186Z,1012.7
2018-05-23T03:25:23.177Z,1012.8
2018-05-23T03:26:25.172Z,1012.8
2018-05-23T03:27:27.447Z,1012.8
2018-05-23T03:28:29.827Z,1012.9
2018-05-23T03:29:31.826Z,1012.9
2018-05-23T03:30:34.105Z,1012.9
2018-05-23T03:31:36.390Z,1012.9
2018-05-23T03:32:38.702Z,1013
2018-05-23T03:33:40.968Z,1013
2018-05-23T03:34:42.977Z,1013
2018-05-23T03:35:45.250Z,1013.1
2018-05-23T03:36:47.246Z,1013
2018-05-23T03:37:49.526Z,1013
2018-05-23T03:38:51.517Z,1013.1
2018-05-23T03:39:53.511Z,1013
2018-05-23T03:40:55.519Z,1013
2018-05-23T03:41:57.510Z,1013
2018-05-23T03:42:59.514Z,1013
2018-05-23T03:44:01.518Z,1013
2018-05-23T03:45:03.785Z,1013.1
2018-05-23T03:46:06.167Z,1013
2018-05-23T03:47:08.151Z,1013
2018-05-23T03:48:10.160Z,1013.1
2018-05-23T03:49:12.537Z,1013.1
2018-05-23T03:50:14.528Z,1013.1
2018-05-23T03:51:16.528Z,1013.1
2018-05-23T03:52:18.520Z,1013.1
2018-05-23T03:53:20.515Z,1013.1
2018-05-23T03:54:22.514Z,1013.1
2018-05-23T03:55:24.544Z,1013.1
2018-05-23T03:56:26.826Z,1013.1
2018-05-23T03:57:28.810Z,1013.1
2018-05-23T03:58:30.808Z,1013.2
2018-05-23T03:59:32.812Z,1013.2
2018-05-23T04:00:35.473Z,1013.2
2018-05-23T04:01:37.470Z,1013.2
2018-05-23T04:02:39.463Z,1013.2
2018-05-23T04:03:41.463Z,1013.2
2018-05-23T04:04:43.551Z,1013.2
2018-05-23T04:05:45.470Z,1013.2
2018-05-23T04:06:47.459Z,1013.3
2018-05-23T04:07:49.456Z,1013.2
2018-05-23T04:08:51.454Z,1013.2
2018-05-23T04:09:53.452Z,1013.2
2018-05-23T04:10:55.724Z,1013.3
2018-05-23T04:11:57.999Z,1013.2
2018-05-23T04:13:00.001Z,1013.2
2018-05-23T04:14:01.991Z,1013.3
2018-05-23T04:15:04.273Z,1013.3
2018-05-23T04:16:06.567Z,1013.2
2018-05-23T04:17:08.556Z,1013.2
2018-05-23T04:18:10.827Z,1013.2
2018-05-23T04:19:12.831Z,1013.2
2018-05-23T04:20:14.826Z,1013.3
2018-05-23T04:21:16.814Z,1013.3
2018-05-23T04:22:18.815Z,1013.3
2018-05-23T04:23:20.815Z,1013.3
2018-05-23T04:24:23.188Z,1013.3
2018-05-23T04:25:25.193Z,1013.3
2018-05-23T04:26:27.185Z,1013.3
2018-05-23T04:27:29.169Z,1013.3
2018-05-23T04:28:31.475Z,1013.3
2018-05-23T04:29:33.750Z,1013.3
2018-05-23T04:30:36.312Z,1013.3
2018-05-23T04:31:38.309Z,1013.3
2018-05-23T04:32:40.304Z,1013.4
2018-05-23T04:33:42.578Z,1013.4
2018-05-23T04:34:44.567Z,1013.4
2018-05-23T04:35:46.960Z,1013.4
2018-05-23T04:36:48.991Z,1013.4
2018-05-23T04:37:50.973Z,1013.4
2018-05-23T04:38:52.983Z,1013.4
2018-05-23T04:39:55.352Z,1013.4
2018-05-23T04:40:57.356Z,1013.4
2018-05-23T04:41:59.354Z,1013.5
2018-05-23T04:43:01.344Z,1013.4
2018-05-23T04:44:03.340Z,1013.5
2018-05-23T04:45:05.332Z,1013.5
2018-05-23T04:46:07.598Z,1013.5
2018-05-23T04:47:09.610Z,1013.6
2018-05-23T04:48:11.603Z,1013.6
2018-05-23T04:49:13.877Z,1013.6
2018-05-23T04:50:15.867Z,1013.6
2018-05-23T04:51:17.865Z,1013.6
2018-05-23T04:52:20.140Z,1013.7
2018-05-23T04:53:22.139Z,1013.7
2018-05-23T04:54:24.130Z,1013.6
2018-05-23T04:55:26.415Z,1013.7
2018-05-23T04:56:28.399Z,1013.7
2018-05-23T04:57:30.401Z,1013.7
2018-05-23T04:58:32.395Z,1013.7
2018-05-23T04:59:34.781Z,1013.7
2018-05-23T05:00:36.767Z,1013.7
2018-05-23T05:01:38.777Z,1013.7
2018-05-23T05:02:41.052Z,1013.7
2018-05-23T05:03:43.329Z,1013.7
2018-05-23T05:04:45.710Z,1013.7
2018-05-23T05:05:47.984Z,1013.7
2018-05-23T05:06:49.981Z,1013.7
2018-05-23T05:07:52.051Z,1013.8
2018-05-23T05:08:54.271Z,1013.8
2018-05-23T05:09:56.273Z,1013.8
2018-05-23T05:10:58.253Z,1013.8
2018-05-23T05:12:00.257Z,1013.8
2018-05-23T05:13:02.567Z,1013.8
2018-05-23T05:14:04.553Z,1013.9
2018-05-23T05:15:06.557Z,1013.9
2018-05-23T05:16:08.827Z,1013.9
2018-05-23T05:17:10.832Z,1014
2018-05-23T05:18:12.832Z,1014
2018-05-23T05:19:14.832Z,1014
2018-05-23T05:20:17.196Z,1014
2018-05-23T05:21:19.199Z,1014
2018-05-23T05:22:21.205Z,1014.1
2018-05-23T05:23:23.200Z,1014.1
2018-05-23T05:24:25.517Z,1014.1
2018-05-23T05:25:27.861Z,1014.2
2018-05-23T05:26:29.860Z,1014.2
2018-05-23T05:27:31.847Z,1014.2
2018-05-23T05:28:34.125Z,1014.3
2018-05-23T05:29:36.136Z,1014.2
2018-05-23T05:30:38.135Z,1014.2
2018-05-23T05:31:40.126Z,1014.3
2018-05-23T05:32:42.116Z,1014.3
2018-05-23T05:33:44.114Z,1014.3
2018-05-23T05:34:46.108Z,1014.3
2018-05-23T05:35:48.102Z,1014.3
2018-05-23T05:36:50.390Z,1014.3
2018-05-23T05:37:52.385Z,1014.3
2018-05-23T05:38:54.383Z,1014.3
2018-05-23T05:39:56.374Z,1014.3
2018-05-23T05:40:58.368Z,1014.3
2018-05-23T05:42:00.373Z,1014.3
2018-05-23T05:43:02.928Z,1014.3
2018-05-23T05:44:04.930Z,1014.3
2018-05-23T05:45:06.927Z,1014.3
2018-05-23T05:46:08.916Z,1014.3
2018-05-23T05:47:10.919Z,1014.3
2018-05-23T05:48:12.920Z,1014.3
2018-05-23T05:49:14.923Z,1014.3
2018-05-23T05:50:16.929Z,1014.3
2018-05-23T05:51:19.189Z,1014.3
2018-05-23T05:52:21.581Z,1014.4
2018-05-23T05:53:23.879Z,1014.4
2018-05-23T05:54:26.162Z,1014.4
2018-05-23T05:55:28.160Z,1014.4
2018-05-23T05:56:30.156Z,1014.4
2018-05-23T05:57:32.157Z,1014.4
2018-05-23T05:58:34.154Z,1014.5
2018-05-23T05:59:36.159Z,1014.5
2018-05-23T06:00:38.157Z,1014.5
2018-05-23T06:01:40.429Z,1014.5
2018-05-23T06:02:42.741Z,1014.5
2018-05-23T06:03:44.727Z,1014.5
2018-05-23T06:04:46.723Z,1014.5
2018-05-23T06:05:48.721Z,1014.5
2018-05-23T06:06:51.383Z,1014.5
2018-05-23T06:07:53.681Z,1014.5
2018-05-23T06:08:55.955Z,1014.5
2018-05-23T06:09:58.842Z,1014.5
2018-05-23T06:11:00.776Z,1014.5
2018-05-23T06:12:02.767Z,1014.5
2018-05-23T06:13:04.773Z,1014.5
2018-05-23T06:14:07.155Z,1014.6
2018-05-23T06:15:09.150Z,1014.6
2018-05-23T06:16:11.145Z,1014.6
2018-05-23T06:17:13.142Z,1014.6
2018-05-23T06:18:15.139Z,1014.7
2018-05-23T06:19:17.131Z,1014.6
2018-05-23T06:20:19.133Z,1014.6
2018-05-23T06:21:21.692Z,1014.6
2018-05-23T06:22:23.714Z,1014.6
2018-05-23T06:23:26.058Z,1014.7
2018-05-23T06:24:28.062Z,1014.7
2018-05-23T06:25:30.065Z,1014.7
2018-05-23T06:26:32.059Z,1014.7
2018-05-23T06:27:34.068Z,1014.7
2018-05-23T06:28:36.347Z,1014.7
2018-05-23T06:29:38.738Z,1014.7
2018-05-23T06:30:40.737Z,1014.8
2018-05-23T06:31:42.728Z,1014.7
2018-05-23T06:32:45.177Z,1014.8
2018-05-23T06:33:47.122Z,1014.8
2018-05-23T06:34:49.122Z,1014.8
2018-05-23T06:35:51.119Z,1014.8
2018-05-23T06:36:53.122Z,1014.7
2018-05-23T06:37:55.199Z,1014.8
2018-05-23T06:38:57.507Z,1014.8
2018-05-23T06:39:59.891Z,1014.8
2018-05-23T06:41:02.270Z,1014.8
2018-05-23T06:42:04.565Z,1014.8
2018-05-23T06:43:06.556Z,1014.8
2018-05-23T06:44:08.559Z,1014.8
2018-05-23T06:45:10.561Z,1014.8
2018-05-23T06:46:12.849Z,1014.8
2018-05-23T06:47:14.849Z,1014.8
2018-05-23T06:48:16.846Z,1014.8
2018-05-23T06:49:18.843Z,1014.8
2018-05-23T06:50:20.857Z,1014.8
2018-05-23T06:51:22.846Z,1014.8
2018-05-23T06:52:24.848Z,1014.8
2018-05-23T06:53:27.149Z,1014.9
2018-05-23T06:54:29.431Z,1014.8
2018-05-23T06:55:31.889Z,1014.9
2018-05-23T06:56:33.818Z,1014.9
2018-05-23T06:57:35.829Z,1014.9
2018-05-23T06:58:37.832Z,1014.9
2018-05-23T06:59:39.822Z,1015
2018-05-23T07:00:41.836Z,1015
2018-05-23T07:01:44.130Z,1015
2018-05-23T07:02:46.441Z,1015
2018-05-23T07:03:48.440Z,1015
2018-05-23T07:04:50.438Z,1015
2018-05-23T07:05:52.823Z,1015
2018-05-23T07:06:55.123Z,1015
2018-05-23T07:07:57.129Z,1015
2018-05-23T07:08:59.143Z,1015
2018-05-23T07:10:01.423Z,1015
2018-05-23T07:11:03.457Z,1015
2018-05-23T07:12:05.719Z,1015
2018-05-23T07:13:07.734Z,1015.1
2018-05-23T07:14:09.720Z,1015.1
2018-05-23T07:15:11.725Z,1015.1
2018-05-23T07:16:13.734Z,1015.1
2018-05-23T07:17:16.120Z,1015
2018-05-23T07:18:18.123Z,1015
2018-05-23T07:19:20.127Z,1015.1
2018-05-23T07:20:22.131Z,1015.1
2018-05-23T07:21:24.422Z,1015.1
2018-05-23T07:22:26.429Z,1015.1
2018-05-23T07:23:28.445Z,1015
2018-05-23T07:24:30.439Z,1015.1
2018-05-23T07:25:32.437Z,1015.1
2018-05-23T07:26:34.440Z,1015.1
2018-05-23T07:27:36.443Z,1015.1
2018-05-23T07:28:38.447Z,1015.1
2018-05-23T07:29:40.445Z,1015.1
2018-05-23T07:30:42.749Z,1015
2018-05-23T07:31:44.794Z,1015.1
2018-05-23T07:32:46.750Z,1015.1
2018-05-23T07:33:48.756Z,1015.1
2018-05-23T07:34:50.765Z,1015.2
2018-05-23T07:35:53.063Z,1015.2
2018-05-23T07:36:55.063Z,1015.1
2018-05-23T07:37:57.064Z,1015.1
2018-05-23T07:38:59.076Z,1015.1
2018-05-23T07:40:01.072Z,1015.1
2018-05-23T07:41:03.372Z,1015.1
2018-05-23T07:42:05.390Z,1015.1
2018-05-23T07:43:07.383Z,1015.2
2018-05-23T07:44:09.381Z,1015.2
2018-05-23T07:45:11.675Z,1015.2
2018-05-23T07:46:14.063Z,1015.2
2018-05-23T07:47:16.074Z,1015.2
2018-05-23T07:48:18.084Z,1015.2
2018-05-23T07:49:20.081Z,1015.2
2018-05-23T07:50:22.089Z,1015.2
2018-05-23T07:51:24.107Z,1015.2
2018-05-23T07:52:26.390Z,1015.3
2018-05-23T07:53:28.702Z,1015.2
2018-05-23T07:54:30.710Z,1015.3
2018-05-23T07:55:33.095Z,1015.3
2018-05-23T07:56:35.416Z,1015.3
2018-05-23T07:57:38.244Z,1015.3
2018-05-23T07:58:40.291Z,1015.3
2018-05-23T07:59:42.297Z,1015.3
2018-05-23T08:00:44.304Z,1015.3
2018-05-23T08:01:46.309Z,1015.3
2018-05-23T08:02:48.979Z,1015.3
2018-05-23T08:03:51.269Z,1015.3
2018-05-23T08:04:53.306Z,1015.3
2018-05-23T08:05:55.805Z,1015.4
2018-05-23T08:06:57.826Z,1015.3
2018-05-23T08:07:59.829Z,1015.3
2018-05-23T08:09:02.119Z,1015.4
2018-05-23T08:10:04.125Z,1015.3
2018-05-23T08:11:06.140Z,1015.4
2018-05-23T08:12:08.443Z,1015.3
2018-05-23T08:13:10.720Z,1015.3
2018-05-23T08:14:12.727Z,1015.3
2018-05-23T08:15:14.735Z,1015.4
2018-05-23T08:16:17.040Z,1015.4
2018-05-23T08:17:19.054Z,1015.4
2018-05-23T08:18:21.065Z,1015.4
2018-05-23T08:19:23.102Z,1015.4
2018-05-23T08:20:25.080Z,1015.4
2018-05-23T08:21:27.094Z,1015.4
2018-05-23T08:22:29.104Z,1015.4
2018-05-23T08:23:31.111Z,1015.4
2018-05-23T08:24:33.194Z,1015.4
2018-05-23T08:25:35.132Z,1015.4
2018-05-23T08:26:37.140Z,1015.4
2018-05-23T08:27:39.139Z,1015.4
2018-05-23T08:28:41.148Z,1015.4
2018-05-23T08:29:43.156Z,1015.4
2018-05-23T08:30:45.612Z,1015.5
2018-05-23T08:31:47.627Z,1015.5
2018-05-23T08:32:49.906Z,1015.5
2018-05-23T08:33:52.211Z,1015.5
2018-05-23T08:34:54.215Z,1015.4
2018-05-23T08:35:56.222Z,1015.4
2018-05-23T08:36:58.226Z,1015.4
2018-05-23T08:38:00.225Z,1015.4
2018-05-23T08:39:02.241Z,1015.4
2018-05-23T08:40:04.630Z,1015.4
2018-05-23T08:41:06.633Z,1015.4
2018-05-23T08:42:08.644Z,1015.4
2018-05-23T08:43:10.651Z,1015.4
2018-05-23T08:44:12.945Z,1015.4
2018-05-23T08:45:14.953Z,1015.4
2018-05-23T08:46:16.967Z,1015.4
2018-05-23T08:47:18.974Z,1015.5
2018-05-23T08:48:20.980Z,1015.5
2018-05-23T08:49:22.984Z,1015.4
2018-05-23T08:50:24.983Z,1015.4
2018-05-23T08:51:26.994Z,1015.5
2018-05-23T08:52:29.282Z,1015.4
2018-05-23T08:53:31.580Z,1015.4
2018-05-23T08:54:33.595Z,1015.4
2018-05-23T08:55:35.597Z,1015.4
2018-05-23T08:56:37.923Z,1015.4
2018-05-23T08:57:40.316Z,1015.4
2018-05-23T08:58:43.029Z,1015.4
2018-05-23T08:59:45.006Z,1015.4
2018-05-23T09:00:47.009Z,1015.4
2018-05-23T09:01:49.018Z,1015.5
2018-05-23T09:02:51.033Z,1015.4
2018-05-23T09:03:53.442Z,1015.5
2018-05-23T09:04:55.521Z,1015.5
2018-05-23T09:05:57.455Z,1015.4
2018-05-23T09:06:59.468Z,1015.5
2018-05-23T09:08:01.474Z,1015.4
2018-05-23T09:09:03.758Z,1015.6
2018-05-23T09:10:05.762Z,1015.5
2018-05-23T09:11:07.769Z,1015.5
2018-05-23T09:12:10.182Z,1015.5
2018-05-23T09:13:12.427Z,1015.5
2018-05-23T09:14:14.440Z,1015.5
2018-05-23T09:15:17.027Z,1015.6
2018-05-23T09:16:19.038Z,1015.5
2018-05-23T09:17:21.340Z,1015.6
2018-05-23T09:18:23.358Z,1015.5
2018-05-23T09:19:25.362Z,1015.5
2018-05-23T09:20:27.369Z,1015.6
2018-05-23T09:21:29.364Z,1015.6
2018-05-23T09:22:31.775Z,1015.5
2018-05-23T09:23:33.784Z,1015.6
2018-05-23T09:24:35.793Z,1015.6
2018-05-23T09:25:38.183Z,1015.6
2018-05-23T09:26:40.197Z,1015.6
2018-05-23T09:27:42.199Z,1015.6
2018-05-23T09:28:44.215Z,1015.6
2018-05-23T09:29:46.225Z,1015.6
2018-05-23T09:30:48.240Z,1015.6
2018-05-23T09:31:50.252Z,1015.6
2018-05-23T09:32:52.645Z,1015.6
2018-05-23T09:33:54.667Z,1015.7
2018-05-23T09:34:56.685Z,1015.7
2018-05-23T09:35:58.678Z,1015.7
2018-05-23T09:37:00.692Z,1015.7
2018-05-23T09:38:02.702Z,1015.7
2018-05-23T09:39:04.749Z,1015.8
2018-05-23T09:40:06.720Z,1015.7
2018-05-23T09:41:08.734Z,1015.8
2018-05-23T09:42:11.049Z,1015.7
2018-05-23T09:43:13.355Z,1015.7
2018-05-23T09:44:15.357Z,1015.7
2018-05-23T09:45:17.377Z,1015.7
2018-05-23T09:46:19.677Z,1015.7
2018-05-23T09:47:21.885Z,1015.7
2018-05-23T09:48:23.903Z,1015.7
2018-05-23T09:49:26.303Z,1015.7
2018-05-23T09:50:28.329Z,1015.7
2018-05-23T09:51:30.331Z,1015.7
2018-05-23T09:52:32.427Z,1015.8
2018-05-23T09:53:34.555Z,1015.8
2018-05-23T09:54:36.556Z,1015.8
2018-05-23T09:55:38.588Z,1015.8
2018-05-23T09:56:40.607Z,1015.8
2018-05-23T09:57:42.650Z,1015.7
2018-05-23T09:58:44.667Z,1015.8
2018-05-23T09:59:46.682Z,1015.8
2018-05-23T10:00:48.703Z,1015.8
2018-05-23T10:01:50.803Z,1015.8
2018-05-23T10:02:52.820Z,1015.8
2018-05-23T10:03:55.320Z,1015.8
2018-05-23T10:04:57.341Z,1015.9
2018-05-23T10:05:59.455Z,1015.8
2018-05-23T10:07:01.524Z,1015.8
2018-05-23T10:08:03.525Z,1015.9
2018-05-23T10:09:06.476Z,1015.9
2018-05-23T10:10:08.591Z,1015.8
2018-05-23T10:11:11.799Z,1015.8
2018-05-23T10:12:13.824Z,1015.8
2018-05-23T10:13:16.952Z,1015.8
2018-05-23T10:14:19.383Z,1015.8
2018-05-23T10:15:21.783Z,1015.8
2018-05-23T10:16:24.512Z,1015.8
2018-05-23T10:17:26.991Z,1015.8
2018-05-23T10:18:29.429Z,1015.9
2018-05-23T10:19:31.764Z,1015.9
2018-05-23T10:20:34.265Z,1015.8
2018-05-23T10:21:37.260Z,1015.8
2018-05-23T10:22:39.983Z,1015.8
2018-05-23T10:23:41.988Z,1015.9
2018-05-23T10:24:44.357Z,1015.9
2018-05-23T10:25:47.102Z,1015.9
2018-05-23T10:26:49.332Z,1015.9
2018-05-23T10:27:51.328Z,1015.9
2018-05-23T10:28:53.351Z,1015.9
2018-05-23T10:29:55.369Z,1015.9
2018-05-23T10:30:57.391Z,1016
2018-05-23T10:31:59.688Z,1015.9
2018-05-23T10:33:01.993Z,1016
2018-05-23T10:34:04.014Z,1016
2018-05-23T10:35:06.015Z,1016
2018-05-23T10:36:08.030Z,1015.9
2018-05-23T10:37:10.056Z,1015.9
2018-05-23T10:38:12.141Z,1015.9
2018-05-23T10:39:14.082Z,1015.9
2018-05-23T10:40:16.103Z,1015.9
2018-05-23T10:41:18.123Z,1016
2018-05-23T10:42:20.134Z,1016
2018-05-23T10:43:22.153Z,1016
2018-05-23T10:44:24.187Z,1015.9
2018-05-23T10:45:26.215Z,1016
2018-05-23T10:46:28.531Z,1015.9
2018-05-23T10:47:30.544Z,1016
2018-05-23T10:48:32.574Z,1016
2018-05-23T10:49:34.586Z,1016.1
2018-05-23T10:50:36.611Z,1016
2018-05-23T10:51:39.076Z,1016
2018-05-23T10:52:41.037Z,1016
2018-05-23T10:53:43.050Z,1016
2018-05-23T10:54:45.356Z,1016
2018-05-23T10:55:47.374Z,1016
2018-05-23T10:56:49.407Z,1016
2018-05-23T10:57:51.421Z,1016
2018-05-23T10:58:53.428Z,1016.1
2018-05-23T10:59:55.450Z,1016.1
2018-05-23T11:00:57.480Z,1016.1
2018-05-23T11:01:59.803Z,1016
2018-05-23T11:03:02.170Z,1016
2018-05-23T11:04:04.569Z,1016
2018-05-23T11:05:06.591Z,1016
2018-05-23T11:06:08.602Z,1016
2018-05-23T11:07:10.612Z,1016
2018-05-23T11:08:12.648Z,1016
2018-05-23T11:09:14.669Z,1016
2018-05-23T11:10:16.681Z,1016
2018-05-23T11:11:18.999Z,1016
2018-05-23T11:12:21.015Z,1016
2018-05-23T11:13:23.026Z,1016
2018-05-23T11:14:25.048Z,1016
2018-05-23T11:15:27.058Z,1016
2018-05-23T11:16:29.083Z,1016
2018-05-23T11:17:31.097Z,1016
2018-05-23T11:18:33.120Z,1016
2018-05-23T11:19:35.525Z,1016
2018-05-23T11:20:38.598Z,1016
2018-05-23T11:21:40.611Z,1016.1
2018-05-23T11:22:42.624Z,1016.1
2018-05-23T11:23:44.635Z,1016.1
2018-05-23T11:24:46.659Z,1016.1
2018-05-23T11:25:48.966Z,1016.1
2018-05-23T11:26:50.992Z,1016.1
2018-05-23T11:27:53.014Z,1016.1
2018-05-23T11:28:55.034Z,1016.1
2018-05-23T11:29:57.040Z,1016.1
2018-05-23T11:30:59.069Z,1016.1
2018-05-23T11:32:01.082Z,1016.1
2018-05-23T11:33:03.117Z,1016
2018-05-23T11:34:05.121Z,1016
2018-05-23T11:35:07.424Z,1016.1
2018-05-23T11:36:09.450Z,1016.1
2018-05-23T11:37:11.471Z,1016.1
2018-05-23T11:38:13.487Z,1016.2
2018-05-23T11:39:15.505Z,1016.1
2018-05-23T11:40:17.522Z,1016.1
2018-05-23T11:41:19.822Z,1016.1
2018-05-23T11:42:21.837Z,1016
2018-05-23T11:43:23.853Z,1016
2018-05-23T11:44:26.073Z,1016
2018-05-23T11:45:28.090Z,1016
2018-05-23T11:46:30.193Z,1016
2018-05-23T11:47:32.129Z,1016
2018-05-23T11:48:34.168Z,1016
2018-05-23T11:49:36.193Z,1016
2018-05-23T11:50:38.207Z,1016
2018-05-23T11:51:40.238Z,1016
2018-05-23T11:52:42.259Z,1016
2018-05-23T11:53:44.286Z,1016
2018-05-23T11:54:46.687Z,1016
2018-05-23T11:55:48.610Z,1016.1
2018-05-23T11:56:50.632Z,1016.1
2018-05-23T11:57:52.649Z,1016.1
2018-05-23T11:58:54.681Z,1016.1
2018-05-23T11:59:56.695Z,1016
2018-05-23T12:00:58.715Z,1016
2018-05-23T12:02:00.741Z,1015.9
2018-05-23T12:03:03.046Z,1015.9
2018-05-23T12:04:05.068Z,1016
2018-05-23T12:05:07.470Z,1015.9
2018-05-23T12:06:09.489Z,1016
2018-05-23T12:07:11.514Z,1016
2018-05-23T12:08:13.537Z,1016
2018-05-23T12:09:15.558Z,1015.9
2018-05-23T12:10:17.662Z,1015.9
2018-05-23T12:11:19.598Z,1015.9
2018-05-23T12:12:21.614Z,1016
2018-05-23T12:13:23.636Z,1015.9
2018-05-23T12:14:25.652Z,1015.9
2018-05-23T12:15:27.957Z,1015.9
2018-05-23T12:16:29.983Z,1016
2018-05-23T12:17:32.003Z,1016
2018-05-23T12:18:34.027Z,1016
2018-05-23T12:19:36.423Z,1016
2018-05-23T12:20:38.339Z,1015.9
2018-05-23T12:21:40.750Z,1015.9
2018-05-23T12:22:42.768Z,1015.9
2018-05-23T12:23:44.796Z,1015.9
2018-05-23T12:24:46.802Z,1015.9
2018-05-23T12:25:49.123Z,1015.9
2018-05-23T12:26:51.423Z,1015.9
2018-05-23T12:27:53.448Z,1016
2018-05-23T12:28:55.474Z,1016
2018-05-23T12:29:58.186Z,1016
2018-05-23T12:31:00.494Z,1015.9
2018-05-23T12:32:02.804Z,1016
2018-05-23T12:33:04.815Z,1016
2018-05-23T12:34:06.839Z,1016
2018-05-23T12:35:08.865Z,1015.9
2018-05-23T12:36:11.168Z,1015.9
2018-05-23T12:37:13.197Z,1015.9
2018-05-23T12:38:15.217Z,1015.8
2018-05-23T12:39:17.505Z,1015.9
2018-05-23T12:40:19.530Z,1015.9
2018-05-23T12:41:21.542Z,1015.9
2018-05-23T12:42:23.572Z,1015.9
2018-05-23T12:43:25.587Z,1015.9
2018-05-23T12:44:27.609Z,1015.9
2018-05-23T12:45:29.630Z,1015.9
2018-05-23T12:46:31.656Z,1015.9
2018-05-23T12:47:33.673Z,1015.9
2018-05-23T12:48:35.707Z,1015.9
2018-05-23T12:49:37.709Z,1015.9
2018-05-23T12:50:39.737Z,1015.9
2018-05-23T12:51:41.756Z,1015.9
2018-05-23T12:52:44.172Z,1015.9
2018-05-23T12:53:46.201Z,1015.9
2018-05-23T12:54:48.496Z,1015.9
2018-05-23T12:55:51.382Z,1015.9
2018-05-23T12:56:53.404Z,1015.9
2018-05-23T12:57:55.431Z,1016
2018-05-23T12:58:57.451Z,1015.9
2018-05-23T12:59:59.473Z,1016
2018-05-23T13:01:01.504Z,1015.9
2018-05-23T13:02:04.074Z,1015.9